Terminal Aerodrome Forecast
Issued by NWS

Home | Current Version | Previous Version | Text Only | Print | Product List | Glossary On
Versions: 1 2 3 4 5 6 7 8 9 10 11 12 13 14 15 16 17
104
FTUS43 KBIS 050529
TAFDIK
TAF
KDIK 050529Z 0506/0606 19008KT P6SM BKN060
     FM050800 24009KT P6SM VCSH BKN090
     FM051000 27011KT P6SM VCSH BKN060
     FM051200 28015G23KT P6SM OVC035
     FM051300 29015G23KT P6SM OVC015
     FM052200 30025G35KT P6SM VCSH OVC010=

USA.gov is the U.S. government's official web portal to all federal, state and local government web resources and services.